Aviation Digital Data Service (ADDS)

Output produced by METARs form (0318 UTC 21 September 2017)
found at http://www.aviationweather.gov/adds/metars/
 
KIPT 210254Z AUTO 31004KT 10SM CLR 18/17 A3001 RMK AO2 SLP160 T01830167 51016
KIPT 210154Z 25003KT 10SM CLR 19/17 A3000 RMK AO2 SLP156 T01890167
KIPT 210054Z 23003KT 10SM CLR 19/17 A2998 RMK AO2 SLP150 T01940172
KIPT 202354Z 26003KT 10SM CLR 22/17 A2997 RMK AO2 SLP145 T02170172 10311 20217 53010
KIPT 202254Z 24003KT 10SM CLR 24/19 A2995 RMK AO2 SLP140 T02390189
KIPT 202154Z 35007KT 10SM CLR 29/16 A2995 RMK AO2 SLP137 T02940156
KIPT 202054Z 35007KT 10SM CLR 30/16 A2993 RMK AO2 SLP133 T03000161 56006
KIPT 201954Z 36007KT 10SM FEW070 31/17 A2994 RMK AO2 SLP134 T03110167
KIPT 201854Z VRB04KT 10SM CLR 30/17 A2994 RMK AO2 SLP136 T03000167
KIPT 201754Z 26006KT 10SM CLR 29/18 A2995 RMK AO2 SLP139 T02940178 10294 20161 58017
KIPT 201654Z 24005KT 10SM CLR 27/17 A2998 RMK AO2 SLP147 T02720172
KIPT 201554Z 26009KT 10SM CLR 24/17 A2999 RMK AO2 SLP151 T02440167
KIPT 201454Z 28008KT 10SM CLR 22/17 A3000 RMK AO2 SLP157 T02170167 58002
KIPT 201400Z 27008KT 10SM SCT005 19/17 A3002 RMK AO2 T01890167
KIPT 201354Z 29006KT 5SM BR BKN003 18/17 A3002 RMK AO2 SLP164 T01830167
KIPT 201301Z 25008KT 3SM BR OVC003 17/16 A3002 RMK AO2 T01670161
KIPT 201254Z 26007KT 2 1/2SM BR OVC003 17/16 A3001 RMK AO2 SLP161 T01670161
KIPT 201220Z 26006KT 2 1/2SM BR OVC002 17/16 A3001 RMK AO2 T01670161
KIPT 201201Z 27006KT 4SM BR OVC002 16/16 A3001 RMK AO2 T01610161
KIPT 201154Z 26006KT 1 1/2SM BR OVC002 16/16 A3001 RMK AO2 SLP159 T01610161 10172 20156 53011
KIPT 201127Z 26007KT 1 1/2SM BR OVC002 16/16 A3000 RMK AO2 T01610156
KIPT 201054Z 33004KT 2 1/2SM BR OVC002 16/16 A2999 RMK AO2 SLP154 T01610156
KIPT 201033Z 31004KT 2 1/2SM BR OVC003 16/16 A2999 RMK AO2 T01610156
KIPT 201011Z AUTO 32004KT 5SM BR OVC002 16/16 A2998 RMK AO2 T01610161
KIPT 201002Z AUTO 29004KT 2 1/2SM BR OVC002 16/16 A2998 RMK AO2 T01610161
KIPT 200954Z AUTO 30003KT 1 3/4SM BR OVC002 16/16 A2998 RMK AO2 SLP149 T01610161
KIPT 200927Z AUTO 28009KT 1SM BR OVC002 16/16 A2997 RMK AO2 T01610161
KIPT 200912Z AUTO 28008KT 2 1/2SM BR OVC002 16/16 A2997 RMK AO2 VIS 2V4 T01610161
KIPT 200854Z AUTO 28004KT 1SM BR VV002 17/16 A2997 RMK AO2 SLP146 T01670161 53001
KIPT 200825Z AUTO 29003KT 1 3/4SM BR OVC002 17/16 A2997 RMK AO2 T01670161
KIPT 200754Z AUTO 32003KT 5SM BR OVC002 17/16 A2997 RMK AO2 SLP145 T01670161
KIPT 200654Z AUTO 31003KT 10SM OVC004 17/16 A2997 RMK AO2 SLP144 T01670156
KIPT 200643Z AUTO 00000KT 10SM BKN004 17/16 A2997 RMK AO2 T01670156
KIPT 200628Z AUTO 00000KT 10SM FEW005 17/16 A2997 RMK AO2 T01670156
KIPT 200554Z AUTO 00000KT 10SM CLR 16/15 A2997 RMK AO2 SLP145 T01610150 10206 20161 55002
KIPT 200543Z AUTO 00000KT 10SM FEW005 16/15 A2997 RMK AO2 T01610150
KIPT 200454Z AUTO 00000KT 10SM CLR 17/16 A2996 RMK AO2 SLP144 T01670156 402890167
KIPT 200354Z AUTO 00000KT 10SM CLR 18/16 A2997 RMK AO2 SLP145 T01780161
KIPT 200254Z AUTO 28003KT 10SM CLR 18/16 A2997 RMK AO2 SLP148 T01780161 51010
KIPT 200154Z 33003KT 10SM CLR 19/18 A2997 RMK AO2 SLP145 T01940178
KIPT 200054Z 00000KT 10SM CLR 20/18 A2996 RMK AO2 SLP142 T02000183
KIPT 192354Z 26003KT 10SM CLR 20/18 A2994 RMK AO2 SLP137 T02000178 10289 20200 53001
KIPT 192254Z 00000KT 10SM CLR 23/19 A2994 RMK AO2 SLP135 T02330194
KIPT 192154Z 24005KT 10SM CLR 27/18 A2994 RMK AO2 SLP134 T02720178
KIPT 192054Z 25006KT 10SM CLR 28/16 A2994 RMK AO2 SLP135 T02830161 58018
KIPT 191954Z 27004KT 10SM CLR 28/17 A2996 RMK AO2 SLP141 T02830172
KIPT 191854Z 25003KT 10SM FEW030 28/17 A2998 RMK AO2 SLP148 T02780167
KIPT 191754Z VRB03KT 10SM FEW025 26/18 A2999 RMK AO2 SLP153 T02560178 10256 20189 58023
KIPT 191654Z 00000KT 10SM FEW022 24/18 A3002 RMK AO2 SLP164 T02390178
KIPT 191647Z 23003KT 10SM SCT021 24/18 A3003 RMK AO2 T02440178
KIPT 191554Z 29003KT 10SM OVC021 23/17 A3004 RMK AO2 SLP170 T02280172